createdAt,value
2022-08-17T00:00:49.244Z,8.82
2022-08-17T00:06:22.911Z,8.70
2022-08-17T00:11:26.239Z,9.35
2022-08-17T00:16:55.454Z,9.32
2022-08-17T00:22:32.032Z,9.70
2022-08-17T00:27:21.678Z,8.88
2022-08-17T00:33:12.121Z,9.88
2022-08-17T00:37:44.680Z,9.40
2022-08-17T00:42:47.367Z,9.57
2022-08-17T00:47:49.590Z,9.35
2022-08-17T00:52:54.850Z,8.90
2022-08-17T00:57:58.533Z,9.63
2022-08-17T01:03:06.409Z,8.82
2022-08-17T01:08:09.150Z,9.00
2022-08-17T01:13:11.482Z,10.32
2022-08-17T01:18:13.714Z,9.68
2022-08-17T01:23:16.465Z,9.23
2022-08-17T01:28:52.663Z,10.10
2022-08-17T01:33:44.651Z,10.25
2022-08-17T01:38:46.167Z,10.27
2022-08-17T01:43:49.109Z,9.35
2022-08-17T01:48:51.675Z,10.20
2022-08-17T01:53:57.531Z,9.73
2022-08-17T01:58:59.028Z,9.70
2022-08-17T02:04:01.921Z,10.95
2022-08-17T02:09:04.233Z,11.57
2022-08-17T02:14:06.721Z,11.85
2022-08-17T02:19:09.901Z,11.00
2022-08-17T02:24:13.206Z,11.20
2022-08-17T02:29:15.897Z,12.02
2022-08-17T02:34:17.363Z,11.32
2022-08-17T02:39:19.097Z,11.40
2022-08-17T02:44:35.451Z,11.27
2022-08-17T02:49:40.986Z,11.38
2022-08-17T02:54:42.591Z,11.63
2022-08-17T02:59:48.809Z,12.77
2022-08-17T03:04:50.617Z,13.30
2022-08-17T03:09:54.034Z,11.93
2022-08-17T03:14:55.530Z,12.85
2022-08-17T03:19:57.134Z,13.35
2022-08-17T03:24:58.642Z,13.73
2022-08-17T03:30:00.154Z,12.77
2022-08-17T03:35:01.662Z,13.68
2022-08-17T03:40:04.091Z,14.35
2022-08-17T03:45:07.470Z,13.77
2022-08-17T03:50:28.485Z,13.93
2022-08-17T03:55:48.461Z,13.77
2022-08-17T04:00:50.858Z,14.95
2022-08-17T04:05:52.326Z,13.68
2022-08-17T04:10:54.880Z,14.02
2022-08-17T04:15:57.427Z,13.63
2022-08-17T04:20:58.896Z,13.75
2022-08-17T04:26:00.666Z,13.57
2022-08-17T04:31:02.203Z,12.88
2022-08-17T04:36:05.147Z,14.05
2022-08-17T04:41:25.326Z,14.43
2022-08-17T04:46:34.632Z,13.13
2022-08-17T04:51:38.082Z,13.57
2022-08-17T04:56:39.603Z,13.60
2022-08-17T05:01:41.931Z,13.80
2022-08-17T05:06:43.919Z,13.48
2022-08-17T05:11:46.143Z,13.65
2022-08-17T05:16:49.439Z,13.32
2022-08-17T05:21:52.089Z,14.52
2022-08-17T05:26:53.590Z,13.63
2022-08-17T05:31:56.784Z,14.70
2022-08-17T05:36:58.242Z,14.15
2022-08-17T05:42:02.202Z,14.88
2022-08-17T05:47:05.443Z,14.20
2022-08-17T05:52:18.846Z,16.05
2022-08-17T05:57:27.634Z,15.07
2022-08-17T06:02:47.037Z,14.00
2022-08-17T06:07:49.379Z,15.40
2022-08-17T06:12:50.976Z,15.25
2022-08-17T06:17:55.568Z,15.68
2022-08-17T06:23:03.117Z,15.30
2022-08-17T06:28:16.377Z,15.25
2022-08-17T06:33:30.467Z,13.73
2022-08-17T06:38:53.334Z,14.80
2022-08-17T06:43:56.327Z,15.07
2022-08-17T06:48:57.750Z,15.60
2022-08-17T06:54:02.460Z,13.85
2022-08-17T06:59:04.634Z,13.93
2022-08-17T07:04:11.902Z,12.52
2022-08-17T07:09:16.470Z,13.68
2022-08-17T07:14:35.630Z,13.05
2022-08-17T07:19:41.187Z,12.88
2022-08-17T07:24:51.705Z,14.02
2022-08-17T07:30:16.565Z,11.90
2022-08-17T07:35:18.121Z,12.52
2022-08-17T07:40:31.018Z,12.93
2022-08-17T07:45:52.211Z,11.52
2022-08-17T07:50:53.700Z,11.70
2022-08-17T07:55:55.197Z,12.10
2022-08-17T08:01:08.134Z,12.40
2022-08-17T08:06:20.945Z,12.10
2022-08-17T08:11:30.806Z,10.93
2022-08-17T08:21:36.928Z,10.88
2022-08-17T08:26:56.773Z,11.52
2022-08-17T08:32:18.362Z,12.05
2022-08-17T08:37:35.792Z,11.98
2022-08-17T08:43:00.871Z,12.05
2022-08-17T08:48:52.877Z,11.45
2022-08-17T08:53:56.358Z,11.35
2022-08-17T08:59:07.751Z,12.02
2022-08-17T09:04:23.678Z,11.65
2022-08-17T09:09:29.539Z,10.73
2022-08-17T09:14:44.887Z,10.70
2022-08-17T09:20:03.970Z,11.25
2022-08-17T09:25:09.092Z,10.52
2022-08-17T09:30:11.970Z,9.90
2022-08-17T09:35:20.112Z,9.68
2022-08-17T09:40:27.041Z,9.18
2022-08-17T09:45:37.915Z,9.88
2022-08-17T09:51:04.554Z,8.07
2022-08-17T09:56:19.766Z,7.57
2022-08-17T10:01:26.810Z,7.43
2022-08-17T10:06:30.907Z,7.80
2022-08-17T10:12:13.031Z,6.97
2022-08-17T10:17:32.598Z,7.57
2022-08-17T10:23:12.150Z,6.22
2022-08-17T10:28:20.372Z,7.07
2022-08-17T10:33:28.109Z,7.05
2022-08-17T10:38:29.579Z,6.45
2022-08-17T10:43:44.779Z,7.00
2022-08-17T10:49:18.208Z,6.47
2022-08-17T10:54:25.863Z,7.07
2022-08-17T10:59:36.484Z,6.18
2022-08-17T11:04:57.327Z,5.70
2022-08-17T11:10:17.644Z,6.47
2022-08-17T11:15:22.402Z,6.18
2022-08-17T11:20:23.855Z,6.25
2022-08-17T11:25:38.502Z,5.85
2022-08-17T11:30:48.585Z,6.22
2022-08-17T11:35:53.462Z,5.53
2022-08-17T11:41:00.893Z,5.93
2022-08-17T11:46:21.307Z,5.60
2022-08-17T11:51:36.519Z,5.88
2022-08-17T11:56:46.118Z,6.30
2022-08-17T12:01:51.667Z,7.15
2022-08-17T12:07:13.423Z,5.75
2022-08-17T12:12:19.365Z,7.07
2022-08-17T12:17:39.269Z,6.75
2022-08-17T12:22:54.994Z,6.20
2022-08-17T12:28:06.338Z,7.07
2022-08-17T12:33:12.547Z,7.35
2022-08-17T12:38:26.854Z,7.85
2022-08-17T12:43:34.370Z,8.02
2022-08-17T12:48:36.872Z,8.18
2022-08-17T12:53:40.060Z,8.50
2022-08-17T12:58:53.584Z,7.82
2022-08-17T13:03:57.278Z,6.35
2022-08-17T13:09:09.175Z,5.93
2022-08-17T13:14:10.682Z,6.40
2022-08-17T13:19:15.165Z,6.05
2022-08-17T13:24:18.778Z,5.65
2022-08-17T13:29:26.047Z,6.47
2022-08-17T13:34:27.666Z,5.78
2022-08-17T13:39:29.490Z,5.78
2022-08-17T13:44:37.120Z,6.28
2022-08-17T13:49:48.267Z,5.50
2022-08-17T13:54:51.246Z,5.95
2022-08-17T14:00:09.734Z,5.00
2022-08-17T14:05:11.375Z,5.85
2022-08-17T14:10:15.654Z,6.53
2022-08-17T14:15:19.365Z,6.35
2022-08-17T14:20:22.570Z,6.68
2022-08-17T14:25:27.914Z,6.38
2022-08-17T14:30:30.054Z,6.22
2022-08-17T14:35:32.047Z,6.38
2022-08-17T14:40:34.779Z,6.22
2022-08-17T14:45:36.238Z,6.32
2022-08-17T14:50:41.111Z,5.38
2022-08-17T14:55:42.882Z,4.97
2022-08-17T15:00:44.839Z,5.15
2022-08-17T15:05:46.896Z,4.97
2022-08-17T15:10:52.547Z,5.35
2022-08-17T15:15:56.100Z,4.88
2022-08-17T15:20:57.594Z,4.88
2022-08-17T15:26:00.002Z,4.88
2022-08-17T15:31:02.274Z,5.05
2022-08-17T15:36:06.603Z,4.88
2022-08-17T15:41:09.431Z,4.95
2022-08-17T15:46:12.490Z,5.28
2022-08-17T15:51:15.695Z,4.63
2022-08-17T15:56:17.319Z,5.35
2022-08-17T16:02:21.597Z,5.00
2022-08-17T16:06:43.050Z,5.32
2022-08-17T16:11:46.126Z,5.20
2022-08-17T16:16:55.227Z,4.90
2022-08-17T16:21:56.698Z,5.43
2022-08-17T16:26:58.467Z,5.72
2022-08-17T16:32:06.973Z,5.97
2022-08-17T16:37:09.848Z,4.93
2022-08-17T16:42:24.575Z,6.05
2022-08-17T16:47:26.544Z,5.13
2022-08-17T16:52:32.292Z,4.95
2022-08-17T16:57:35.879Z,5.15
2022-08-17T17:02:38.787Z,5.18
2022-08-17T17:08:07.874Z,5.38
2022-08-17T17:13:28.067Z,4.82
2022-08-17T17:18:37.946Z,5.30
2022-08-17T17:23:48.154Z,5.38
2022-08-17T17:29:06.419Z,5.63
2022-08-17T17:34:10.150Z,6.05
2022-08-17T17:39:19.493Z,6.18
2022-08-17T17:44:25.715Z,6.18
2022-08-17T17:49:29.191Z,6.10
2022-08-17T17:54:35.852Z,6.18
2022-08-17T17:59:41.819Z,6.63
2022-08-17T18:04:55.249Z,6.13
2022-08-17T18:10:05.776Z,6.50
2022-08-17T18:15:30.432Z,6.57
2022-08-17T18:20:43.340Z,8.00
2022-08-17T18:25:56.355Z,7.15
2022-08-17T18:31:05.728Z,7.10
2022-08-17T18:36:07.678Z,7.18
2022-08-17T18:41:18.654Z,6.60
2022-08-17T18:46:28.659Z,6.80
2022-08-17T18:51:40.400Z,6.88
2022-08-17T18:56:48.979Z,7.93
2022-08-17T19:01:59.184Z,9.15
2022-08-17T19:07:17.547Z,8.38
2022-08-17T19:12:38.421Z,8.43
2022-08-17T19:17:44.301Z,8.07
2022-08-17T19:23:04.375Z,8.90
2022-08-17T19:33:07.503Z,8.90
2022-08-17T19:38:32.241Z,9.32
2022-08-17T19:43:56.569Z,8.30
2022-08-17T19:49:06.155Z,7.90
2022-08-17T19:54:14.191Z,7.75
2022-08-17T19:59:36.045Z,8.48
2022-08-17T20:04:42.719Z,8.77
2022-08-17T20:09:47.314Z,8.07
2022-08-17T20:15:00.303Z,8.50
2022-08-17T20:20:07.642Z,8.50
2022-08-17T20:25:32.321Z,8.52
2022-08-17T20:30:33.779Z,8.77
2022-08-17T20:35:38.649Z,9.30
2022-08-17T20:41:01.122Z,9.05
2022-08-17T20:46:02.744Z,9.30
2022-08-17T20:51:15.693Z,8.63
2022-08-17T20:56:36.352Z,8.52
2022-08-17T21:01:39.760Z,8.85
2022-08-17T21:07:01.271Z,8.75
2022-08-17T21:12:05.543Z,9.45
2022-08-17T21:17:26.443Z,9.55
2022-08-17T21:22:47.377Z,9.32
2022-08-17T21:27:55.159Z,7.85
2022-08-17T21:33:18.691Z,8.43
2022-08-17T21:38:23.539Z,8.18
2022-08-17T21:43:35.435Z,8.02
2022-08-17T21:48:44.007Z,8.32
2022-08-17T21:53:48.201Z,7.95
2022-08-17T21:58:54.579Z,7.93
2022-08-17T22:04:04.151Z,8.15
2022-08-17T22:09:12.452Z,7.85
2022-08-17T22:14:51.577Z,7.88
2022-08-17T22:19:53.042Z,7.18
2022-08-17T22:24:57.632Z,7.75
2022-08-17T22:29:59.407Z,8.40
2022-08-17T22:35:23.866Z,7.20
2022-08-17T22:40:28.228Z,7.78
2022-08-17T22:45:30.510Z,7.80
2022-08-17T22:50:33.195Z,8.02
2022-08-17T22:55:53.333Z,7.78
2022-08-17T23:00:55.126Z,7.78
2022-08-17T23:06:05.623Z,9.32
2022-08-17T23:11:07.217Z,8.82
2022-08-17T23:16:09.881Z,8.63
2022-08-17T23:21:13.410Z,9.13
2022-08-17T23:26:18.167Z,8.38
2022-08-17T23:31:19.981Z,8.55
2022-08-17T23:36:28.457Z,8.95
2022-08-17T23:41:32.772Z,8.57
2022-08-17T23:46:34.749Z,8.10
2022-08-17T23:51:38.430Z,9.00
2022-08-17T23:56:46.713Z,9.05
